Time;durP1;ratioP1;P1;durP2;ratioP2;P2;SDS_P1;SDS_P2;PMS_P1;PMS_P2;Temp;Humidity;BMP_temperature;BMP_pressure;BME280_temperature;BME280_humidity;BME280_pressure;Samples;Min_cycle;Max_cycle;Signal;HPM_P1;HPM_P2
2022/01/07 00:00:34;;;;;;;30.38;8.80;;;;;;;1.35;94.27;101260.59;15300081;19;20023;-66
2022/01/07 00:05:45;;;;;;;24.00;8.88;;;;;;;1.45;93.91;101249.13;15288998;19;20402;-68
2022/01/07 00:10:47;;;;;;;22.83;9.40;;;;;;;1.40;93.86;101242.81;15295559;19;20534;-68
2022/01/07 00:15:53;;;;;;;29.77;9.98;;;;;;;1.38;93.77;101228.91;15285438;19;20549;-68
2022/01/07 00:20:56;;;;;;;22.67;9.05;;;;;;;1.34;94.02;101221.78;15292920;19;20022;-68
2022/01/07 00:25:58;;;;;;;27.05;8.80;;;;;;;1.30;94.30;101222.38;15294482;19;20011;-68
2022/01/07 00:30:59;;;;;;;23.88;10.23;;;;;;;1.35;93.80;101218.38;15298065;19;20443;-68
2022/01/07 00:36:02;;;;;;;23.85;9.80;;;;;;;1.47;93.20;101207.91;15285987;19;20020;-68
2022/01/07 00:41:05;;;;;;;25.20;9.57;;;;;;;1.38;93.57;101204.00;15288229;19;20010;-68
2022/01/07 00:46:07;;;;;;;25.35;9.43;;;;;;;1.32;93.62;101183.00;15287635;19;20322;-68
2022/01/07 00:51:09;;;;;;;28.58;10.02;;;;;;;1.32;93.55;101174.34;15292794;19;20014;-69
2022/01/07 00:56:10;;;;;;;22.20;9.55;;;;;;;1.37;93.42;101168.66;15289715;19;20097;-68
2022/01/07 01:01:13;;;;;;;18.88;8.63;;;;;;;1.38;93.39;101161.81;15291816;19;20010;-66
2022/01/07 01:06:15;;;;;;;24.20;9.43;;;;;;;1.31;93.42;101151.94;15284664;19;20018;-68
2022/01/07 01:11:19;;;;;;;19.17;8.93;;;;;;;1.36;92.94;101141.06;15287488;19;20031;-68
2022/01/07 01:16:21;;;;;;;24.48;8.13;;;;;;;1.37;92.61;101140.28;15286385;19;20014;-68
2022/01/07 01:21:26;;;;;;;21.10;9.15;;;;;;;1.42;91.95;101127.66;15285472;19;20549;-68
2022/01/07 01:26:27;;;;;;;27.77;8.73;;;;;;;1.44;91.54;101113.13;15287126;19;20018;-68
2022/01/07 01:31:32;;;;;;;20.85;7.15;;;;;;;1.44;91.64;101115.72;15287357;19;20677;-68
2022/01/07 01:36:34;;;;;;;27.35;7.30;;;;;;;1.35;92.07;101108.34;15285317;19;20030;-68
2022/01/07 01:41:36;;;;;;;22.52;8.40;;;;;;;1.38;91.73;101100.78;15285026;19;20510;-68
2022/01/07 01:46:37;;;;;;;21.58;6.43;;;;;;;1.42;91.20;101101.84;15284424;19;20376;-67
2022/01/07 01:51:39;;;;;;;19.55;6.85;;;;;;;1.53;90.30;101090.47;15283765;19;20090;-67
2022/01/07 01:56:41;;;;;;;15.32;5.95;;;;;;;1.48;90.17;101081.56;15283878;19;20089;-68
2022/01/07 02:01:43;;;;;;;17.58;6.85;;;;;;;1.53;89.81;101080.16;15283880;19;20015;-66
2022/01/07 02:06:45;;;;;;;18.27;6.15;;;;;;;1.56;89.74;101075.16;15286982;19;20034;-68
2022/01/07 02:11:46;;;;;;;19.88;5.97;;;;;;;1.56;88.91;101070.00;15282670;19;20497;-68
2022/01/07 02:16:48;;;;;;;19.02;5.55;;;;;;;1.54;89.30;101057.78;15283310;19;20070;-68
2022/01/07 02:21:49;;;;;;;13.88;4.55;;;;;;;1.64;88.63;101051.50;15282461;19;20019;-67
2022/01/07 02:26:52;;;;;;;12.70;4.78;;;;;;;1.57;90.09;101056.28;15282868;19;20014;-67
2022/01/07 02:31:54;;;;;;;15.10;4.68;;;;;;;1.41;92.70;101053.59;15282993;19;20032;-67
2022/01/07 02:36:56;;;;;;;16.73;4.68;;;;;;;1.22;93.45;101039.63;15296176;19;20028;-68
2022/01/07 02:42:00;;;;;;;11.32;4.28;;;;;;;1.13;94.82;101026.19;15295896;19;20046;-67
2022/01/07 02:47:02;;;;;;;12.98;5.07;;;;;;;1.00;95.62;101034.00;15294813;19;20078;-67
2022/01/07 02:52:04;;;;;;;16.35;5.57;;;;;;;0.97;96.17;101019.22;15293203;19;20173;-67
2022/01/07 02:57:06;;;;;;;16.55;5.03;;;;;;;0.84;97.63;101015.06;15295986;19;20018;-67
2022/01/07 03:02:08;;;;;;;19.73;6.07;;;;;;;0.74;98.11;101010.13;15296742;19;20028;-67
2022/01/07 03:07:10;;;;;;;13.65;4.60;;;;;;;0.68;98.75;101005.50;15294917;19;20242;-67
2022/01/07 03:12:11;;;;;;;15.50;5.55;;;;;;;0.66;99.06;100985.56;15293850;19;20010;-70
2022/01/07 03:17:14;;;;;;;21.08;5.63;;;;;;;0.72;99.33;100974.75;15294428;19;20073;-68
2022/01/07 03:22:15;;;;;;;12.55;5.15;;;;;;;0.61;99.33;100971.53;15291423;19;20435;-68
2022/01/07 03:27:17;;;;;;;17.38;5.28;;;;;;;0.63;99.58;100951.88;15294605;19;20073;-68
2022/01/07 03:32:19;;;;;;;20.83;6.10;;;;;;;0.58;99.88;100940.44;15292247;19;20031;-68
2022/01/07 03:37:25;;;;;;;16.77;6.15;;;;;;;0.62;99.70;100935.53;15293753;19;20023;-68
2022/01/07 03:42:29;;;;;;;18.05;5.90;;;;;;;0.58;99.74;100925.84;15289969;19;20049;-69
2022/01/07 03:47:34;;;;;;;18.38;6.88;;;;;;;0.65;99.83;100924.53;15292409;19;20456;-68
2022/01/07 03:52:36;;;;;;;16.02;6.30;;;;;;;0.58;99.79;100912.97;15290373;19;20015;-68
2022/01/07 03:57:38;;;;;;;15.25;6.55;;;;;;;0.61;99.83;100925.16;15292193;19;20489;-69
2022/01/07 04:02:40;;;;;;;18.23;6.95;;;;;;;0.62;99.72;100917.50;15292393;19;20026;-69
2022/01/07 04:07:42;;;;;;;18.60;7.63;;;;;;;0.63;99.79;100902.91;15291724;19;20031;-68
2022/01/07 04:12:44;;;;;;;20.80;7.15;;;;;;;0.55;100.00;100904.16;15289766;19;20671;-69
2022/01/07 04:17:47;;;;;;;18.20;7.90;;;;;;;0.54;100.00;100905.84;15289252;19;20010;-69
2022/01/07 04:22:49;;;;;;;20.27;8.02;;;;;;;0.55;100.00;100896.44;15288665;19;20011;-69
2022/01/07 04:27:54;;;;;;;14.05;7.70;;;;;;;0.50;100.00;100891.91;15290784;19;20015;-69
2022/01/07 04:32:56;;;;;;;17.92;9.13;;;;;;;0.44;100.00;100888.97;15288755;19;20066;-70
2022/01/07 04:38:01;;;;;;;17.90;7.60;;;;;;;0.43;100.00;100889.75;15289659;19;20504;-69
2022/01/07 04:43:04;;;;;;;22.60;9.70;;;;;;;0.38;100.00;100870.56;15290188;19;20542;-68
2022/01/07 04:48:07;;;;;;;21.60;9.07;;;;;;;0.47;100.00;100877.97;15295997;19;20719;-68
2022/01/07 04:53:08;;;;;;;21.70;9.52;;;;;;;0.46;100.00;100856.44;15291376;19;20109;-69
2022/01/07 04:58:12;;;;;;;17.27;7.72;;;;;;;0.46;100.00;100845.25;15292902;19;20066;-69
2022/01/07 05:03:14;;;;;;;16.63;8.13;;;;;;;0.46;100.00;100845.25;15293747;19;20086;-69
2022/01/07 05:08:18;;;;;;;18.58;9.13;;;;;;;0.47;100.00;100840.19;15294699;19;20010;-68
2022/01/07 05:13:20;;;;;;;17.33;8.40;;;;;;;0.50;100.00;100835.22;15287872;19;20735;-69
2022/01/07 05:18:21;;;;;;;21.35;9.07;;;;;;;0.55;100.00;100830.31;15286313;19;20014;-69
2022/01/07 05:23:23;;;;;;;21.13;9.25;;;;;;;0.55;100.00;100812.28;15283839;19;20078;-68
2022/01/07 05:28:25;;;;;;;19.15;9.82;;;;;;;0.59;100.00;100824.56;15286042;19;20027;-68
2022/01/07 05:33:27;;;;;;;19.90;9.10;;;;;;;0.60;100.00;100818.59;15283706;19;20025;-68
2022/01/07 05:38:28;;;;;;;18.40;10.00;;;;;;;0.67;100.00;100804.38;15285436;19;20023;-69
2022/01/07 05:43:30;;;;;;;17.27;8.82;;;;;;;0.65;100.00;100805.97;15282552;19;20042;-67
2022/01/07 05:48:32;;;;;;;17.48;9.18;;;;;;;0.73;100.00;100807.28;15285432;19;20477;-67
2022/01/07 05:53:34;;;;;;;20.83;9.63;;;;;;;0.73;100.00;100796.97;15283439;19;20010;-67
2022/01/07 05:58:35;;;;;;;19.05;9.70;;;;;;;0.72;100.00;100787.47;15285250;19;20017;-68
2022/01/07 06:03:38;;;;;;;22.75;9.50;;;;;;;0.70;100.00;100784.81;15284351;19;20078;-68
2022/01/07 06:08:39;;;;;;;21.25;9.32;;;;;;;0.68;100.00;100764.91;15290842;19;20035;-68
2022/01/07 06:13:41;;;;;;;19.00;9.68;;;;;;;0.68;100.00;100762.34;15303322;19;20030;-68
2022/01/07 06:18:56;;;;;;;17.85;9.68;;;;;;;0.71;100.00;100767.66;15299959;19;20023;-68
2022/01/07 06:23:58;;;;;;;20.20;9.25;;;;;;;0.73;100.00;100763.47;15294673;19;20015;-68
2022/01/07 06:29:00;;;;;;;18.80;11.10;;;;;;;0.74;100.00;100757.53;15298785;19;20452;-68
2022/01/07 06:34:02;;;;;;;18.48;10.32;;;;;;;0.70;100.00;100758.16;15300464;19;20078;-68
2022/01/07 06:39:04;;;;;;;24.65;10.80;;;;;;;0.69;100.00;100752.13;15303779;19;20074;-69
2022/01/07 06:44:06;;;;;;;19.23;11.73;;;;;;;0.74;100.00;100752.38;15293096;19;20010;-68
2022/01/07 06:49:08;;;;;;;17.45;9.38;;;;;;;0.67;100.00;100755.41;15295188;19;20062;-69
2022/01/07 06:54:13;;;;;;;19.02;10.48;;;;;;;0.69;100.00;100748.63;15292887;19;20015;-70
2022/01/07 06:59:15;;;;;;;17.63;10.27;;;;;;;0.71;100.00;100762.50;15297432;19;20011;-69
2022/01/07 07:04:17;;;;;;;18.95;10.30;;;;;;;0.66;100.00;100762.25;15299635;19;20078;-69
2022/01/07 07:09:19;;;;;;;21.98;10.98;;;;;;;0.67;100.00;100752.81;15300165;19;20665;-68
2022/01/07 07:14:21;;;;;;;16.70;9.50;;;;;;;0.70;100.00;100750.41;15296063;19;20486;-68
2022/01/07 07:19:23;;;;;;;19.67;11.23;;;;;;;0.77;100.00;100752.53;15297964;19;20031;-68
2022/01/07 07:24:25;;;;;;;19.67;11.27;;;;;;;0.79;100.00;100745.78;15297953;19;20022;-68
2022/01/07 07:29:29;;;;;;;18.92;9.95;;;;;;;0.81;100.00;100744.19;15300541;19;20094;-67
2022/01/07 07:39:40;;;;;;;22.35;10.55;;;;;;;0.78;100.00;100759.47;15299017;19;20027;-68
2022/01/07 07:44:42;;;;;;;17.75;9.73;;;;;;;0.85;100.00;100759.00;15296572;19;20033;-68
2022/01/07 07:49:44;;;;;;;20.90;10.38;;;;;;;0.88;100.00;100768.59;15299022;19;20423;-67
2022/01/07 07:54:46;;;;;;;20.25;10.65;;;;;;;0.90;100.00;100773.84;15294418;19;20031;-67
2022/01/07 07:59:50;;;;;;;23.38;11.27;;;;;;;0.90;100.00;100773.84;15299600;19;20018;-67
2022/01/07 08:04:52;;;;;;;20.05;9.75;;;;;;;0.98;100.00;100768.31;15294239;19;20541;-67
2022/01/07 08:09:54;;;;;;;21.30;10.85;;;;;;;0.99;100.00;100759.78;15292244;19;20473;-68
2022/01/07 08:20:19;;;;;;;23.15;11.13;;;;;;;1.05;100.00;100769.53;15186100;19;2004662;-68
2022/01/07 08:25:21;;;;;;;16.75;9.82;;;;;;;1.05;100.00;100761.78;15286535;19;20082;-68
2022/01/07 08:30:26;;;;;;;17.45;9.35;;;;;;;1.12;100.00;100761.34;15291982;19;20416;-68
2022/01/07 08:35:28;;;;;;;18.33;9.95;;;;;;;1.12;100.00;100756.16;15217618;19;20105;-67
2022/01/07 08:40:30;;;;;;;18.15;10.15;;;;;;;1.14;100.00;100749.44;15232656;19;20490;-68
2022/01/07 08:45:37;;;;;;;18.02;9.13;;;;;;;1.20;100.00;100760.06;15290510;19;20014;-68
2022/01/07 08:50:38;;;;;;;18.75;9.98;;;;;;;1.30;100.00;100747.66;15293031;19;20014;-69
2022/01/07 08:55:40;;;;;;;18.42;10.18;;;;;;;1.23;100.00;100752.50;15288792;19;20021;-68
2022/01/07 09:00:42;;;;;;;15.85;9.70;;;;;;;1.32;100.00;100752.13;15296070;19;20028;-67
2022/01/07 09:05:44;;;;;;;15.82;9.45;;;;;;;1.32;100.00;100758.94;15290326;19;20412;-69
2022/01/07 09:10:46;;;;;;;15.68;9.93;;;;;;;1.35;100.00;100753.94;15291248;19;20482;-69
2022/01/07 09:15:48;;;;;;;19.17;9.70;;;;;;;1.37;100.00;100752.34;15284006;19;20360;-69
2022/01/07 09:20:51;;;;;;;20.85;9.60;;;;;;;1.42;100.00;100756.06;15294981;19;20082;-69
2022/01/07 09:25:53;;;;;;;19.67;10.43;;;;;;;1.47;100.00;100757.22;15288519;19;20015;-69
2022/01/07 09:30:57;;;;;;;17.52;9.52;;;;;;;1.55;100.00;100748.16;15292945;19;20175;-69
2022/01/07 09:35:59;;;;;;;18.33;8.52;;;;;;;1.61;100.00;100751.88;15291100;19;20018;-69
2022/01/07 09:41:05;;;;;;;23.02;10.95;;;;;;;1.61;100.00;100754.44;15291964;19;20078;-69
2022/01/07 09:46:07;;;;;;;22.20;10.43;;;;;;;1.64;100.00;100749.47;15282394;19;20006;-70
2022/01/07 09:51:14;;;;;;;17.75;9.30;;;;;;;1.74;100.00;100752.59;15289767;19;20030;-68
2022/01/07 09:56:18;;;;;;;19.75;9.13;;;;;;;1.80;100.00;100752.00;15287118;19;20082;-69
2022/01/07 10:01:22;;;;;;;19.55;9.60;;;;;;;1.90;100.00;100751.69;15289601;19;20007;-67
2022/01/07 10:06:29;;;;;;;16.60;8.63;;;;;;;1.96;100.00;100751.13;15284909;19;20014;-69
2022/01/07 10:12:02;;;;;;;22.35;10.18;;;;;;;2.04;100.00;100748.91;15289790;19;20011;-69
2022/01/07 10:17:04;;;;;;;23.52;10.20;;;;;;;2.06;100.00;100744.75;15284003;19;20086;-69
2022/01/07 10:22:10;;;;;;;26.95;9.55;;;;;;;2.09;100.00;100737.16;15287179;19;20407;-68
2022/01/07 10:27:16;;;;;;;20.30;10.05;;;;;;;2.15;100.00;100745.19;15284464;19;20014;-68
2022/01/07 10:32:29;;;;;;;26.23;9.55;;;;;;;2.23;100.00;100743.88;15289435;19;20081;-68
2022/01/07 10:37:31;;;;;;;21.90;9.35;;;;;;;2.30;100.00;100737.34;15286530;19;20018;-68
2022/01/07 10:42:33;;;;;;;19.70;9.77;;;;;;;2.28;100.00;100732.09;15283324;19;20064;-67
2022/01/07 10:47:35;;;;;;;17.35;8.98;;;;;;;2.32;100.00;100724.50;15283979;19;20015;-68
2022/01/07 10:52:36;;;;;;;23.58;9.88;;;;;;;2.39;100.00;100721.41;15284045;19;20031;-69
2022/01/07 10:57:45;;;;;;;21.02;8.98;;;;;;;2.44;100.00;100719.91;15301917;19;20111;-71
2022/01/07 11:02:47;;;;;;;18.75;9.52;;;;;;;2.44;100.00;100719.91;15301581;19;20015;-67
2022/01/07 11:07:49;;;;;;;19.80;8.80;;;;;;;2.49;100.00;100723.59;15302499;19;20010;-69
2022/01/07 11:12:54;;;;;;;20.77;9.15;;;;;;;2.53;100.00;100714.31;15298958;19;20032;-69
2022/01/07 11:18:00;;;;;;;22.15;9.75;;;;;;;2.58;100.00;100718.91;15300199;19;20474;-69
2022/01/07 11:23:02;;;;;;;20.38;9.85;;;;;;;2.67;100.00;100718.44;15299244;19;20090;-68
2022/01/07 11:28:04;;;;;;;20.35;9.35;;;;;;;2.73;100.00;100712.66;15299705;19;20109;-68
2022/01/07 11:33:21;;;;;;;22.23;9.85;;;;;;;2.81;99.97;100706.19;15292916;19;20011;-68
2022/01/07 11:38:44;;;;;;;18.83;9.23;;;;;;;2.98;99.31;100694.91;15295973;19;20032;-67
2022/01/07 11:43:47;;;;;;;22.38;10.27;;;;;;;3.08;99.17;100696.22;15292180;19;20010;-68
2022/01/07 11:48:49;;;;;;;18.33;8.02;;;;;;;3.26;99.08;100703.94;15298307;19;20042;-68
2022/01/07 11:53:54;;;;;;;24.17;8.80;;;;;;;3.27;98.02;100697.94;15294912;19;20019;-68
2022/01/07 11:58:57;;;;;;;14.48;7.82;;;;;;;3.29;98.15;100683.38;15295352;19;20428;-67
2022/01/07 12:04:03;;;;;;;20.80;8.00;;;;;;;3.39;97.54;100683.78;15298351;19;20022;-68
2022/01/07 12:09:20;;;;;;;20.73;8.73;;;;;;;3.30;97.70;100686.81;15294812;19;20006;-68
2022/01/07 12:14:27;;;;;;;14.85;7.82;;;;;;;3.27;98.69;100689.28;15285258;19;20011;-69
2022/01/07 12:19:49;;;;;;;18.75;8.32;;;;;;;3.35;99.02;100691.41;15294516;19;21516;-69
2022/01/07 12:24:57;;;;;;;17.02;7.65;;;;;;;3.17;98.72;100690.59;15286988;19;20074;-68
2022/01/07 12:30:03;;;;;;;18.25;8.02;;;;;;;3.13;99.54;100671.44;15293417;19;20010;-69
2022/01/07 12:35:08;;;;;;;16.25;7.50;;;;;;;3.11;100.00;100664.44;15285752;19;20029;-68
2022/01/07 12:40:10;;;;;;;20.40;8.70;;;;;;;3.06;100.00;100660.75;15289221;19;20086;-70
2022/01/07 12:45:22;;;;;;;14.57;8.38;;;;;;;3.11;100.00;100664.44;15289617;19;20022;-69
2022/01/07 12:50:24;;;;;;;16.52;7.97;;;;;;;3.10;100.00;100666.13;15293666;19;20018;-69
2022/01/07 12:55:27;;;;;;;17.05;7.63;;;;;;;3.05;100.00;100654.69;15283598;19;20006;-69
2022/01/07 13:00:38;;;;;;;16.13;7.20;;;;;;;3.00;100.00;100633.78;15291104;19;20018;-67
2022/01/07 13:05:42;;;;;;;17.20;8.30;;;;;;;3.04;100.00;100637.38;15288311;19;20037;-69
2022/01/07 13:10:48;;;;;;;15.25;7.78;;;;;;;3.02;100.00;100613.16;15290041;19;21448;-69
2022/01/07 13:15:56;;;;;;;18.55;7.82;;;;;;;3.28;100.00;100629.81;15287705;19;20021;-69
2022/01/07 13:21:19;;;;;;;21.35;8.82;;;;;;;3.30;100.00;100625.63;15293564;19;20015;-70
2022/01/07 13:26:25;;;;;;;18.30;8.75;;;;;;;3.34;99.88;100632.69;15289907;19;20015;-70
2022/01/07 13:31:32;;;;;;;14.25;8.07;;;;;;;3.23;99.11;100628.75;15289750;19;20487;-69
2022/01/07 13:36:40;;;;;;;17.02;8.30;;;;;;;3.16;99.18;100631.88;15292390;19;20011;-69
2022/01/07 13:42:00;;;;;;;16.88;8.05;;;;;;;3.21;98.44;100625.19;15290051;19;20010;-69
2022/01/07 13:47:03;;;;;;;17.13;8.13;;;;;;;3.14;98.98;100613.69;15287850;19;20018;-69
2022/01/07 13:52:05;;;;;;;18.55;7.72;;;;;;;3.16;98.99;100622.41;15284376;19;20014;-69
2022/01/07 13:57:11;;;;;;;17.55;9.10;;;;;;;3.13;98.85;100626.56;15288931;19;20070;-69
2022/01/07 14:02:31;;;;;;;12.60;6.18;;;;;;;3.19;97.84;100629.44;15281138;19;20031;-69
2022/01/07 14:07:57;;;;;;;10.80;4.47;;;;;;;3.15;95.48;100643.03;15284250;19;20015;-69
2022/01/07 14:13:06;;;;;;;10.52;3.03;;;;;;;3.03;94.98;100637.31;15281985;19;20086;-69
2022/01/07 14:18:16;;;;;;;5.75;2.58;;;;;;;2.96;96.22;100638.75;15288263;19;20373;-69
2022/01/07 14:23:19;;;;;;;;;;;;;;;2.82;95.64;100635.50;15281583;19;20078;-69
2022/01/07 14:28:20;;;;;;;4.00;1.63;;;;;;;2.71;95.08;100626.41;15290266;19;19978;-69
2022/01/07 14:33:23;;;;;;;3.33;1.48;;;;;;;2.59;94.75;100639.63;15300624;19;20493;-69
2022/01/07 14:38:25;;;;;;;3.45;1.25;;;;;;;2.50;95.40;100639.19;15300490;19;20078;-69
2022/01/07 14:43:26;;;;;;;2.67;1.20;;;;;;;2.36;95.32;100636.84;15296122;19;20093;-68
2022/01/07 14:48:31;;;;;;;2.58;0.82;;;;;;;2.22;95.12;100636.19;15298938;19;20014;-68
2022/01/07 14:53:33;;;;;;;2.90;1.20;;;;;;;2.05;95.91;100632.78;15293480;19;20015;-69
2022/01/07 14:58:35;;;;;;;2.45;1.00;;;;;;;2.02;96.07;100626.59;15302954;19;20023;-67
2022/01/07 15:03:36;;;;;;;2.10;1.15;;;;;;;1.92;96.62;100635.56;15298866;19;20014;-69
2022/01/07 15:08:41;;;;;;;4.22;1.45;;;;;;;1.79;97.08;100634.06;15298403;19;20023;-68
2022/01/07 15:13:44;;;;;;;5.18;1.50;;;;;;;1.69;97.33;100632.72;15296005;19;20031;-68
2022/01/07 15:18:45;;;;;;;3.35;1.35;;;;;;;1.65;97.83;100642.81;15299416;19;20022;-69
2022/01/07 15:23:47;;;;;;;8.00;1.73;;;;;;;1.57;98.18;100637.25;15288158;19;20031;-68
2022/01/07 15:28:49;;;;;;;3.65;1.58;;;;;;;1.51;98.37;100635.25;15298251;19;20018;-69
2022/01/07 15:33:50;;;;;;;2.95;1.45;;;;;;;1.51;98.70;100627.50;15293889;19;20026;-68
2022/01/07 15:38:52;;;;;;;2.83;1.13;;;;;;;1.47;98.91;100627.28;15301926;19;20875;-69
2022/01/07 15:43:54;;;;;;;2.88;1.42;;;;;;;1.46;99.12;100636.72;15293785;19;20018;-68
2022/01/07 15:48:57;;;;;;;11.32;2.00;;;;;;;1.45;99.44;100636.66;15291416;19;20017;-68
2022/01/07 15:53:59;;;;;;;4.78;1.88;;;;;;;1.43;99.59;100636.56;15284479;19;20637;-68
2022/01/07 15:59:01;;;;;;;8.60;2.28;;;;;;;1.46;99.81;100634.13;15288902;19;20018;-67
2022/01/07 16:04:02;;;;;;;6.22;2.20;;;;;;;1.41;100.00;100630.41;15284635;19;20022;-68
2022/01/07 16:09:10;;;;;;;6.75;2.38;;;;;;;1.35;99.82;100631.00;15279632;19;20366;-68
2022/01/07 16:14:12;;;;;;;6.60;2.53;;;;;;;1.29;100.00;100619.47;15266956;19;20026;-68
2022/01/07 16:19:16;;;;;;;8.98;3.08;;;;;;;1.17;100.00;100640.34;15274166;19;20050;-68
2022/01/07 16:24:18;;;;;;;10.88;2.55;;;;;;;1.05;100.00;100635.44;15272416;19;20018;-68
2022/01/07 16:29:22;;;;;;;16.05;4.50;;;;;;;1.04;100.00;100631.09;15285366;19;20018;-68
2022/01/07 16:34:24;;;;;;;16.00;6.13;;;;;;;1.10;100.00;100625.38;15278473;19;20022;-68
2022/01/07 16:39:25;;;;;;;14.07;4.80;;;;;;;1.17;100.00;100615.47;15283455;19;20021;-68
2022/01/07 16:44:27;;;;;;;13.32;4.78;;;;;;;1.16;100.00;100611.09;15277294;19;20387;-68
2022/01/07 16:49:29;;;;;;;18.15;5.82;;;;;;;1.23;100.00;100612.28;15227603;19;20011;-68
2022/01/07 16:54:58;;;;;;;16.20;5.25;;;;;;;1.25;100.00;100618.44;15252502;19;20023;-69
2022/01/07 16:59:59;;;;;;;10.50;4.32;;;;;;;1.31;100.00;100617.88;15295314;19;20014;-68
2022/01/07 17:05:01;;;;;;;11.75;4.68;;;;;;;1.37;100.00;100618.19;15289318;19;20029;-68
2022/01/07 17:10:05;;;;;;;17.98;4.80;;;;;;;1.41;100.00;100625.25;15294583;19;20031;-68
2022/01/07 17:15:08;;;;;;;13.70;6.00;;;;;;;1.45;100.00;100616.88;15288899;19;20047;-69
2022/01/07 17:20:10;;;;;;;14.15;6.18;;;;;;;1.44;100.00;100621.97;15293286;19;20102;-68
2022/01/07 17:25:13;;;;;;;16.60;6.20;;;;;;;1.40;100.00;100620.94;15284711;19;20658;-68
2022/01/07 17:30:15;;;;;;;11.45;5.00;;;;;;;1.46;100.00;100608.34;15293124;19;20424;-69
2022/01/07 17:35:22;;;;;;;14.32;5.32;;;;;;;1.53;100.00;100613.00;15285863;19;20045;-68
2022/01/07 17:40:23;;;;;;;13.85;5.47;;;;;;;1.51;100.00;100606.84;15290404;19;20130;-68
2022/01/07 17:45:43;;;;;;;10.88;5.35;;;;;;;1.53;100.00;100601.78;15288267;19;20020;-69
2022/01/07 17:50:45;;;;;;;13.77;6.97;;;;;;;1.64;100.00;100602.34;15288240;19;20043;-68
2022/01/07 17:55:47;;;;;;;16.90;6.05;;;;;;;1.67;100.00;100602.50;15285429;19;20376;-68
2022/01/07 18:00:48;;;;;;;11.80;5.88;;;;;;;1.84;100.00;100606.78;15292135;19;20031;-64
2022/01/07 18:05:51;;;;;;;12.63;6.07;;;;;;;1.85;99.77;100605.09;15302548;19;20003;-67
2022/01/07 18:10:52;;;;;;;11.13;5.60;;;;;;;1.82;99.70;100615.25;15305552;19;20013;-67
2022/01/07 18:15:54;;;;;;;14.77;5.78;;;;;;;1.87;99.77;100612.09;15294196;19;20530;-67
2022/01/07 18:20:56;;;;;;;14.15;6.68;;;;;;;1.86;99.56;100612.91;15291710;19;20023;-67
2022/01/07 18:25:58;;;;;;;19.10;6.68;;;;;;;1.90;99.18;100613.94;15288653;19;20091;-68
2022/01/07 18:30:59;;;;;;;13.43;6.18;;;;;;;1.88;99.03;100613.88;15290956;19;20488;-67
2022/01/07 18:36:01;;;;;;;15.40;6.13;;;;;;;1.92;98.70;100617.47;15291434;19;20010;-68
2022/01/07 18:41:03;;;;;;;22.77;6.93;;;;;;;1.91;97.86;100615.72;15294076;19;20029;-67
2022/01/07 18:46:05;;;;;;;13.98;6.20;;;;;;;1.90;97.85;100612.25;15296362;19;20093;-68
2022/01/07 18:51:07;;;;;;;15.40;5.03;;;;;;;1.93;97.50;100621.84;15301474;19;20022;-68
2022/01/07 18:56:08;;;;;;;9.43;4.70;;;;;;;1.91;96.80;100629.50;15281677;19;20010;-67
2022/01/07 19:01:10;;;;;;;10.93;4.07;;;;;;;1.89;96.58;100625.97;15291656;19;20090;-67
2022/01/07 19:06:13;;;;;;;14.75;4.10;;;;;;;1.88;95.90;100629.38;15287811;19;20014;-67
2022/01/07 19:11:16;;;;;;;8.05;3.38;;;;;;;1.85;95.12;100636.97;15292843;19;20021;-67
2022/01/07 19:16:21;;;;;;;10.70;3.10;;;;;;;1.83;94.76;100641.19;15279794;19;20070;-67
2022/01/07 19:21:23;;;;;;;7.82;2.72;;;;;;;1.79;94.11;100647.00;15289660;19;20483;-67
2022/01/07 19:26:27;;;;;;;9.00;3.40;;;;;;;1.75;93.81;100642.47;15281236;19;20077;-67
2022/01/07 19:31:29;;;;;;;6.72;2.42;;;;;;;1.67;94.05;100643.78;15291436;19;20018;-67
2022/01/07 19:36:31;;;;;;;4.00;1.65;;;;;;;1.64;93.99;100641.94;15295193;19;20101;-67
2022/01/07 19:41:34;;;;;;;5.25;2.08;;;;;;;1.47;93.66;100642.75;15296528;19;20010;-66
2022/01/07 19:46:40;;;;;;;5.28;2.00;;;;;;;1.36;94.06;100634.47;15288723;19;20575;-66
2022/01/07 19:51:42;;;;;;;6.15;2.25;;;;;;;1.29;94.20;100641.03;15295571;19;20014;-67
2022/01/07 19:56:43;;;;;;;6.47;1.95;;;;;;;1.20;93.87;100646.56;15294364;19;20011;-67
2022/01/07 20:01:45;;;;;;;4.93;1.85;;;;;;;1.11;93.85;100651.25;15298873;19;20089;-67
2022/01/07 20:06:47;;;;;;;7.35;2.53;;;;;;;1.11;93.65;100650.34;15297011;19;20018;-66
2022/01/07 20:11:48;;;;;;;6.20;1.90;;;;;;;1.10;93.88;100657.22;15296407;19;20023;-67
2022/01/07 20:16:50;;;;;;;5.38;1.92;;;;;;;1.02;93.89;100655.91;15291715;19;20478;-66
2022/01/07 20:21:55;;;;;;;5.28;1.70;;;;;;;0.97;93.92;100659.94;15293640;19;20034;-67
2022/01/07 20:26:57;;;;;;;6.88;1.75;;;;;;;0.83;94.66;100659.19;15291578;19;20453;-66
2022/01/07 20:31:58;;;;;;;3.65;1.60;;;;;;;0.77;94.85;100654.59;15295690;19;20098;-66
2022/01/07 20:37:00;;;;;;;4.78;1.42;;;;;;;0.75;94.91;100661.38;15295318;19;20018;-66
2022/01/07 20:42:05;;;;;;;3.53;1.17;;;;;;;0.76;95.39;100657.97;15292032;19;21430;-66
2022/01/07 20:47:06;;;;;;;8.15;2.00;;;;;;;0.75;95.77;100661.38;15284037;19;20010;-66
2022/01/07 20:52:08;;;;;;;7.00;2.50;;;;;;;0.61;95.88;100664.88;15291400;19;20085;-66
2022/01/07 20:57:10;;;;;;;7.40;2.40;;;;;;;0.56;96.14;100658.59;15293821;19;20042;-66
2022/01/07 21:02:12;;;;;;;7.07;1.90;;;;;;;0.45;96.37;100661.44;15297163;19;20027;-68
2022/01/07 21:07:14;;;;;;;5.43;2.15;;;;;;;0.50;96.69;100654.84;15277359;19;20015;-67
2022/01/07 21:12:15;;;;;;;8.38;2.00;;;;;;;0.50;96.78;100653.97;15285391;19;20015;-67
2022/01/07 21:17:17;;;;;;;4.63;1.55;;;;;;;0.50;96.65;100643.66;15279250;19;20022;-67
2022/01/07 21:22:19;;;;;;;6.57;2.13;;;;;;;0.48;97.35;100637.53;15276868;19;20014;-67
2022/01/07 21:27:21;;;;;;;5.25;2.22;;;;;;;0.53;97.66;100636.97;15277275;19;20496;-67
2022/01/07 21:32:23;;;;;;;8.55;2.38;;;;;;;0.47;98.00;100639.22;15274657;19;20316;-65
2022/01/07 21:37:24;;;;;;;8.30;2.28;;;;;;;0.38;98.86;100646.44;15274427;19;20035;-67
2022/01/07 21:42:26;;;;;;;7.03;2.67;;;;;;;0.33;99.33;100650.44;15279836;19;20094;-67
2022/01/07 21:47:28;;;;;;;5.00;2.22;;;;;;;0.22;99.70;100651.53;15277181;19;20016;-67
2022/01/07 21:52:29;;;;;;;10.23;2.65;;;;;;;0.09;100.00;100656.00;15276743;19;20478;-67
2022/01/07 21:57:31;;;;;;;9.23;2.45;;;;;;;0.07;100.00;100647.28;15286512;19;20006;-68
2022/01/07 22:02:33;;;;;;;6.25;2.72;;;;;;;-0.03;100.00;100647.53;15291736;19;20522;-68
2022/01/07 22:07:34;;;;;;;10.77;2.53;;;;;;;-0.08;100.00;100637.00;15289316;19;20018;-68
2022/01/07 22:12:36;;;;;;;8.15;2.97;;;;;;;-0.04;100.00;100645.78;15287817;19;20017;-67
2022/01/07 22:17:38;;;;;;;7.78;3.22;;;;;;;-0.09;100.00;100645.53;15287390;19;20078;-68
2022/01/07 22:22:40;;;;;;;11.23;2.72;;;;;;;-0.09;100.00;100655.81;15288819;19;20015;-68
2022/01/07 22:27:42;;;;;;;12.02;3.42;;;;;;;-0.09;100.00;100663.56;15288054;19;20031;-67
2022/01/07 22:32:44;;;;;;;7.18;3.10;;;;;;;-0.11;100.00;100654.84;15286348;19;20094;-66
2022/01/07 22:37:46;;;;;;;12.48;3.83;;;;;;;-0.13;100.00;100665.84;15288508;19;20038;-67
2022/01/07 22:42:53;;;;;;;9.13;3.58;;;;;;;-0.16;100.00;100664.00;15286113;19;20032;-67
2022/01/07 22:48:14;;;;;;;6.47;3.17;;;;;;;-0.21;100.00;100662.81;15286784;19;20027;-67
2022/01/07 22:53:16;;;;;;;9.00;3.25;;;;;;;-0.29;100.00;100672.66;15298253;19;20077;-66
2022/01/07 22:58:18;;;;;;;9.27;3.17;;;;;;;-0.37;100.00;100679.94;15303168;19;20019;-66
2022/01/07 23:03:20;;;;;;;7.13;3.10;;;;;;;-0.44;100.00;100669.19;15303136;19;20014;-67
2022/01/07 23:08:21;;;;;;;10.07;3.92;;;;;;;-0.45;100.00;100682.84;15290708;19;20014;-67
2022/01/07 23:13:23;;;;;;;8.18;3.05;;;;;;;-0.47;100.00;100681.88;15298743;19;20018;-66
2022/01/07 23:18:28;;;;;;;9.88;3.58;;;;;;;-0.61;100.00;100693.91;15293797;19;20031;-67